sensor_id;sensor_type;location;lat;lon;timestamp;pressure;altitude;pressure_sealevel;temperature;humidity
80627;BME280;69982;51.758;5.784;2024-02-23T00:01:14;98759.77;;;4.68;84.15
80627;BME280;69982;51.758;5.784;2024-02-23T00:03:51;98758.86;;;4.68;83.80
80627;BME280;69982;51.758;5.784;2024-02-23T00:06:42;98765.83;;;4.66;83.70
80627;BME280;69982;51.758;5.784;2024-02-23T00:09:14;98765.11;;;4.63;83.53
80627;BME280;69982;51.758;5.784;2024-02-23T00:11:51;98767.94;;;4.62;83.64
80627;BME280;69982;51.758;5.784;2024-02-23T00:14:22;98775.56;;;4.63;83.77
80627;BME280;69982;51.758;5.784;2024-02-23T00:16:50;98776.75;;;4.65;83.57
80627;BME280;69982;51.758;5.784;2024-02-23T00:19:24;98775.37;;;4.63;83.68
80627;BME280;69982;51.758;5.784;2024-02-23T00:22:01;98775.95;;;4.60;83.92
80627;BME280;69982;51.758;5.784;2024-02-23T00:24:33;98781.75;;;4.55;84.00
80627;BME280;69982;51.758;5.784;2024-02-23T00:27:06;98778.62;;;4.53;83.93
80627;BME280;69982;51.758;5.784;2024-02-23T00:29:38;98788.69;;;4.54;84.06
80627;BME280;69982;51.758;5.784;2024-02-23T00:32:10;98790.48;;;4.58;84.17
80627;BME280;69982;51.758;5.784;2024-02-23T00:34:50;98789.95;;;4.61;84.17
80627;BME280;69982;51.758;5.784;2024-02-23T00:37:19;98798.31;;;4.63;84.12
80627;BME280;69982;51.758;5.784;2024-02-23T00:39:47;98798.98;;;4.62;84.21
80627;BME280;69982;51.758;5.784;2024-02-23T00:42:30;98800.61;;;4.60;84.39
80627;BME280;69982;51.758;5.784;2024-02-23T00:44:58;98804.44;;;4.61;84.40
80627;BME280;69982;51.758;5.784;2024-02-23T00:47:39;98808.08;;;4.64;84.43
80627;BME280;69982;51.758;5.784;2024-02-23T00:50:11;98797.34;;;4.68;84.34
80627;BME280;69982;51.758;5.784;2024-02-23T00:52:38;98818.46;;;4.70;84.47
80627;BME280;69982;51.758;5.784;2024-02-23T00:55:10;98823.25;;;4.72;84.66
80627;BME280;69982;51.758;5.784;2024-02-23T00:57:46;98815.34;;;4.73;84.41
80627;BME280;69982;51.758;5.784;2024-02-23T01:00:21;98820.26;;;4.77;84.48
80627;BME280;69982;51.758;5.784;2024-02-23T01:02:51;98823.66;;;4.80;84.32
80627;BME280;69982;51.758;5.784;2024-02-23T01:05:18;98833.38;;;4.84;84.23
80627;BME280;69982;51.758;5.784;2024-02-23T01:07:50;98830.10;;;4.88;84.02
80627;BME280;69982;51.758;5.784;2024-02-23T01:10:17;98833.96;;;4.89;84.09
80627;BME280;69982;51.758;5.784;2024-02-23T01:12:45;98837.73;;;4.89;84.02
80627;BME280;69982;51.758;5.784;2024-02-23T01:15:22;98844.90;;;4.90;83.94
80627;BME280;69982;51.758;5.784;2024-02-23T01:17:49;98844.69;;;4.92;83.74
80627;BME280;69982;51.758;5.784;2024-02-23T01:20:18;98848.93;;;4.96;83.78
80627;BME280;69982;51.758;5.784;2024-02-23T01:22:54;98851.04;;;4.98;83.46
80627;BME280;69982;51.758;5.784;2024-02-23T01:25:21;98857.23;;;4.97;83.35
80627;BME280;69982;51.758;5.784;2024-02-23T01:27:51;98850.52;;;4.94;83.26
80627;BME280;69982;51.758;5.784;2024-02-23T01:30:22;98851.80;;;4.94;83.07
80627;BME280;69982;51.758;5.784;2024-02-23T01:32:49;98853.77;;;4.96;83.04
80627;BME280;69982;51.758;5.784;2024-02-23T01:35:20;98857.16;;;4.97;82.79
80627;BME280;69982;51.758;5.784;2024-02-23T01:38:07;98854.61;;;4.98;82.72
80627;BME280;69982;51.758;5.784;2024-02-23T01:40:40;98852.55;;;4.97;82.58
80627;BME280;69982;51.758;5.784;2024-02-23T01:43:09;98853.31;;;4.95;82.38
80627;BME280;69982;51.758;5.784;2024-02-23T01:45:35;98859.58;;;4.94;82.25
80627;BME280;69982;51.758;5.784;2024-02-23T01:48:02;98857.89;;;4.94;82.27
80627;BME280;69982;51.758;5.784;2024-02-23T01:50:32;98859.95;;;4.96;81.99
80627;BME280;69982;51.758;5.784;2024-02-23T01:53:01;98858.30;;;4.98;81.83
80627;BME280;69982;51.758;5.784;2024-02-23T01:55:29;98870.30;;;4.99;81.46
80627;BME280;69982;51.758;5.784;2024-02-23T01:58:01;98870.77;;;4.97;81.65
80627;BME280;69982;51.758;5.784;2024-02-23T02:00:29;98879.70;;;4.96;81.47
80627;BME280;69982;51.758;5.784;2024-02-23T02:02:56;98883.64;;;4.98;81.36
80627;BME280;69982;51.758;5.784;2024-02-23T02:05:24;98885.17;;;5.00;81.10
80627;BME280;69982;51.758;5.784;2024-02-23T02:07:59;98887.95;;;5.04;81.22
80627;BME280;69982;51.758;5.784;2024-02-23T02:10:51;98883.96;;;5.06;80.92
80627;BME280;69982;51.758;5.784;2024-02-23T02:13:24;98893.05;;;5.05;80.49
80627;BME280;69982;51.758;5.784;2024-02-23T02:16:28;98882.61;;;5.02;80.66
80627;BME280;69982;51.758;5.784;2024-02-23T02:25:54;98895.33;;;5.11;80.26
80627;BME280;69982;51.758;5.784;2024-02-23T02:28:42;98898.48;;;5.12;80.26
80627;BME280;69982;51.758;5.784;2024-02-23T02:34:34;98908.60;;;5.08;80.02
80627;BME280;69982;51.758;5.784;2024-02-23T03:40:47;98953.98;;;4.93;79.49
80627;BME280;69982;51.758;5.784;2024-02-23T03:43:19;98955.17;;;4.95;79.50
80627;BME280;69982;51.758;5.784;2024-02-23T03:49:01;98963.91;;;4.95;79.42
80627;BME280;69982;51.758;5.784;2024-02-23T03:51:27;98968.36;;;4.92;79.75
80627;BME280;69982;51.758;5.784;2024-02-23T03:53:54;98971.80;;;4.91;79.77
80627;BME280;69982;51.758;5.784;2024-02-23T03:56:41;98967.70;;;4.90;79.74
80627;BME280;69982;51.758;5.784;2024-02-23T04:48:26;99016.70;;;5.08;79.10
80627;BME280;69982;51.758;5.784;2024-02-23T04:50:53;99026.20;;;5.13;79.00
80627;BME280;69982;51.758;5.784;2024-02-23T04:53:20;99024.86;;;5.15;78.88
80627;BME280;69982;51.758;5.784;2024-02-23T04:55:48;99025.06;;;5.17;79.10
80627;BME280;69982;51.758;5.784;2024-02-23T04:58:15;99025.36;;;5.17;78.96
80627;BME280;69982;51.758;5.784;2024-02-23T05:01:21;99020.20;;;5.18;78.98
80627;BME280;69982;51.758;5.784;2024-02-23T05:03:50;99019.95;;;5.17;78.84
80627;BME280;69982;51.758;5.784;2024-02-23T05:06:18;99021.17;;;5.19;78.92
80627;BME280;69982;51.758;5.784;2024-02-23T05:08:45;99025.90;;;5.23;79.11
80627;BME280;69982;51.758;5.784;2024-02-23T05:11:19;99027.60;;;5.28;78.80
80627;BME280;69982;51.758;5.784;2024-02-23T05:13:58;99026.67;;;5.31;78.73
80627;BME280;69982;51.758;5.784;2024-02-23T05:16:25;99033.60;;;5.32;78.37
80627;BME280;69982;51.758;5.784;2024-02-23T05:18:51;99031.39;;;5.29;78.55
80627;BME280;69982;51.758;5.784;2024-02-23T05:21:21;99034.06;;;5.28;78.58
80627;BME280;69982;51.758;5.784;2024-02-23T05:23:48;99027.94;;;5.26;78.80
80627;BME280;69982;51.758;5.784;2024-02-23T05:26:14;99033.21;;;5.29;78.44
80627;BME280;69982;51.758;5.784;2024-02-23T05:28:45;99032.63;;;5.31;78.54
80627;BME280;69982;51.758;5.784;2024-02-23T05:31:47;99022.35;;;5.34;78.58
80627;BME280;69982;51.758;5.784;2024-02-23T05:34:35;99016.98;;;5.35;78.37
80627;BME280;69982;51.758;5.784;2024-02-23T05:37:26;99013.06;;;5.35;78.37
80627;BME280;69982;51.758;5.784;2024-02-23T05:43:32;99022.66;;;5.37;78.17
80627;BME280;69982;51.758;5.784;2024-02-23T05:47:11;99022.70;;;5.43;78.05
80627;BME280;69982;51.758;5.784;2024-02-23T05:54:00;99030.65;;;5.46;78.05
80627;BME280;69982;51.758;5.784;2024-02-23T06:19:47;99014.91;;;5.61;77.38
80627;BME280;69982;51.758;5.784;2024-02-23T06:22:14;99012.95;;;5.62;77.29
80627;BME280;69982;51.758;5.784;2024-02-23T06:24:43;99018.88;;;5.62;77.40
80627;BME280;69982;51.758;5.784;2024-02-23T06:27:09;99010.30;;;5.62;77.19
80627;BME280;69982;51.758;5.784;2024-02-23T06:29:37;99019.98;;;5.62;77.23
80627;BME280;69982;51.758;5.784;2024-02-23T06:32:03;99020.31;;;5.64;76.89
80627;BME280;69982;51.758;5.784;2024-02-23T06:34:30;99020.80;;;5.67;76.89
80627;BME280;69982;51.758;5.784;2024-02-23T06:37:03;99021.39;;;5.73;76.75
80627;BME280;69982;51.758;5.784;2024-02-23T06:39:29;99025.20;;;5.75;76.52
80627;BME280;69982;51.758;5.784;2024-02-23T06:42:00;99027.76;;;5.76;76.38
80627;BME280;69982;51.758;5.784;2024-02-23T06:44:39;99024.16;;;5.75;76.13
80627;BME280;69982;51.758;5.784;2024-02-23T06:47:09;99029.20;;;5.72;76.11
80627;BME280;69982;51.758;5.784;2024-02-23T06:56:08;99020.86;;;5.71;75.78
80627;BME280;69982;51.758;5.784;2024-02-23T06:58:35;99019.07;;;5.72;75.30
80627;BME280;69982;51.758;5.784;2024-02-23T07:01:02;99010.15;;;5.72;74.75
80627;BME280;69982;51.758;5.784;2024-02-23T07:03:30;99021.20;;;5.71;75.08
80627;BME280;69982;51.758;5.784;2024-02-23T07:05:57;99011.21;;;5.69;74.92
80627;BME280;69982;51.758;5.784;2024-02-23T07:08:24;99009.73;;;5.68;74.70
80627;BME280;69982;51.758;5.784;2024-02-23T07:10:58;99004.72;;;5.69;74.61
80627;BME280;69982;51.758;5.784;2024-02-23T09:07:28;98986.71;;;6.48;71.70
80627;BME280;69982;51.758;5.784;2024-02-23T09:09:54;98995.33;;;6.47;71.68
80627;BME280;69982;51.758;5.784;2024-02-23T09:12:33;98988.67;;;6.48;71.80
80627;BME280;69982;51.758;5.784;2024-02-23T09:15:11;98977.68;;;6.52;71.59
80627;BME280;69982;51.758;5.784;2024-02-23T09:17:47;98980.57;;;6.56;71.74
80627;BME280;69982;51.758;5.784;2024-02-23T09:20:15;98981.70;;;6.57;71.60
80627;BME280;69982;51.758;5.784;2024-02-23T09:22:51;98983.17;;;6.58;71.62
80627;BME280;69982;51.758;5.784;2024-02-23T09:25:22;98988.05;;;6.57;71.37
80627;BME280;69982;51.758;5.784;2024-02-23T09:27:58;98974.30;;;6.56;71.38
80627;BME280;69982;51.758;5.784;2024-02-23T09:30:46;98983.55;;;6.58;71.53
80627;BME280;69982;51.758;5.784;2024-02-23T09:33:22;98980.16;;;6.59;71.47
80627;BME280;69982;51.758;5.784;2024-02-23T09:35:57;98983.52;;;6.60;71.37
80627;BME280;69982;51.758;5.784;2024-02-23T09:38:32;98976.56;;;6.58;71.32
80627;BME280;69982;51.758;5.784;2024-02-23T09:41:01;98983.62;;;6.58;71.57
80627;BME280;69982;51.758;5.784;2024-02-23T09:44:06;98987.36;;;6.58;71.96
80627;BME280;69982;51.758;5.784;2024-02-23T09:46:44;98977.54;;;6.62;71.60
80627;BME280;69982;51.758;5.784;2024-02-23T09:49:36;98982.11;;;6.66;71.80
80627;BME280;69982;51.758;5.784;2024-02-23T09:52:08;98997.08;;;6.68;71.91
80627;BME280;69982;51.758;5.784;2024-02-23T09:54:45;98996.05;;;6.71;72.00
80627;BME280;69982;51.758;5.784;2024-02-23T09:57:24;99004.28;;;6.72;72.25
80627;BME280;69982;51.758;5.784;2024-02-23T09:59:51;99002.95;;;6.74;72.35
80627;BME280;69982;51.758;5.784;2024-02-23T10:02:27;99001.79;;;6.78;72.18
80627;BME280;69982;51.758;5.784;2024-02-23T10:05:00;99008.58;;;6.83;72.33
80627;BME280;69982;51.758;5.784;2024-02-23T10:07:28;99008.26;;;6.87;72.05
80627;BME280;69982;51.758;5.784;2024-02-23T10:10:32;99011.84;;;6.88;71.68
80627;BME280;69982;51.758;5.784;2024-02-23T10:13:07;99020.69;;;6.88;72.06
80627;BME280;69982;51.758;5.784;2024-02-23T10:15:45;99026.29;;;6.88;72.22
80627;BME280;69982;51.758;5.784;2024-02-23T10:18:28;99032.30;;;6.90;72.19
80627;BME280;69982;51.758;5.784;2024-02-23T10:21:08;99030.34;;;6.93;72.27
80627;BME280;69982;51.758;5.784;2024-02-23T10:23:35;99034.39;;;6.95;72.30
80627;BME280;69982;51.758;5.784;2024-02-23T10:26:26;99054.87;;;6.95;71.83
80627;BME280;69982;51.758;5.784;2024-02-23T10:29:08;99037.20;;;6.93;71.54
80627;BME280;69982;51.758;5.784;2024-02-23T10:31:52;99045.02;;;6.88;71.80
80627;BME280;69982;51.758;5.784;2024-02-23T10:34:28;99064.04;;;6.87;71.67
80627;BME280;69982;51.758;5.784;2024-02-23T10:37:00;99051.26;;;6.87;72.04
80627;BME280;69982;51.758;5.784;2024-02-23T10:39:57;99058.16;;;6.88;72.36
80627;BME280;69982;51.758;5.784;2024-02-23T10:42:33;99063.77;;;6.88;72.10
80627;BME280;69982;51.758;5.784;2024-02-23T10:45:21;99064.30;;;6.84;71.98
80627;BME280;69982;51.758;5.784;2024-02-23T10:48:11;99072.80;;;6.84;72.39
80627;BME280;69982;51.758;5.784;2024-02-23T10:50:41;99074.48;;;6.86;72.54
80627;BME280;69982;51.758;5.784;2024-02-23T10:53:13;99081.79;;;6.92;72.35
80627;BME280;69982;51.758;5.784;2024-02-23T10:55:46;99076.90;;;6.95;72.64
80627;BME280;69982;51.758;5.784;2024-02-23T10:58:25;99073.48;;;6.97;72.47
80627;BME280;69982;51.758;5.784;2024-02-23T11:01:04;99076.71;;;6.99;72.70
80627;BME280;69982;51.758;5.784;2024-02-23T11:03:42;99078.54;;;6.99;72.50
80627;BME280;69982;51.758;5.784;2024-02-23T11:06:33;99081.38;;;6.98;72.41
80627;BME280;69982;51.758;5.784;2024-02-23T11:09:22;99082.21;;;6.98;72.17
80627;BME280;69982;51.758;5.784;2024-02-23T11:12:25;99085.45;;;7.01;72.11
80627;BME280;69982;51.758;5.784;2024-02-23T11:15:26;99091.17;;;7.03;72.28
80627;BME280;69982;51.758;5.784;2024-02-23T11:17:56;99091.35;;;7.04;72.21
80627;BME280;69982;51.758;5.784;2024-02-23T11:20:54;99093.23;;;7.04;72.18
80627;BME280;69982;51.758;5.784;2024-02-23T11:24:15;99094.65;;;7.02;71.96
80627;BME280;69982;51.758;5.784;2024-02-23T11:27:05;99098.61;;;7.01;72.33
80627;BME280;69982;51.758;5.784;2024-02-23T11:29:52;99093.55;;;7.04;72.41
80627;BME280;69982;51.758;5.784;2024-02-23T11:33:01;99095.52;;;7.08;72.01
80627;BME280;69982;51.758;5.784;2024-02-23T11:35:33;99088.83;;;7.10;71.84
80627;BME280;69982;51.758;5.784;2024-02-23T11:38:07;99091.08;;;7.11;71.77
80627;BME280;69982;51.758;5.784;2024-02-23T11:40:54;99090.59;;;7.12;71.93
80627;BME280;69982;51.758;5.784;2024-02-23T11:43:42;99087.88;;;7.13;71.98
80627;BME280;69982;51.758;5.784;2024-02-23T11:46:08;99090.59;;;7.15;72.44
80627;BME280;69982;51.758;5.784;2024-02-23T11:48:35;99082.13;;;7.19;72.32
80627;BME280;69982;51.758;5.784;2024-02-23T11:51:03;99083.38;;;7.23;72.15
80627;BME280;69982;51.758;5.784;2024-02-23T11:53:29;99085.00;;;7.29;72.12
80627;BME280;69982;51.758;5.784;2024-02-23T11:55:57;99101.25;;;7.33;71.58
80627;BME280;69982;51.758;5.784;2024-02-23T11:58:26;99090.70;;;7.35;71.60
80627;BME280;69982;51.758;5.784;2024-02-23T12:00:54;99093.23;;;7.36;71.37
80627;BME280;69982;51.758;5.784;2024-02-23T12:03:20;99095.59;;;7.37;71.50
80627;BME280;69982;51.758;5.784;2024-02-23T12:05:51;99092.05;;;7.37;71.32
80627;BME280;69982;51.758;5.784;2024-02-23T12:08:17;99097.33;;;7.37;71.65
80627;BME280;69982;51.758;5.784;2024-02-23T12:10:44;99099.19;;;7.40;71.70
80627;BME280;69982;51.758;5.784;2024-02-23T12:13:17;99093.90;;;7.45;71.41
80627;BME280;69982;51.758;5.784;2024-02-23T12:15:47;99102.14;;;7.50;71.08
80627;BME280;69982;51.758;5.784;2024-02-23T12:18:17;99098.23;;;7.52;70.79
80627;BME280;69982;51.758;5.784;2024-02-23T12:20:47;99101.23;;;7.54;71.16
80627;BME280;69982;51.758;5.784;2024-02-23T12:23:17;99096.31;;;7.56;71.19
80627;BME280;69982;51.758;5.784;2024-02-23T12:25:58;99101.44;;;7.57;71.35
80627;BME280;69982;51.758;5.784;2024-02-23T12:28:25;99096.98;;;7.57;71.08
80627;BME280;69982;51.758;5.784;2024-02-23T12:33:33;99102.67;;;7.56;71.02
80627;BME280;69982;51.758;5.784;2024-02-23T12:36:04;99104.34;;;7.60;71.13
80627;BME280;69982;51.758;5.784;2024-02-23T12:38:31;99105.73;;;7.64;70.94
80627;BME280;69982;51.758;5.784;2024-02-23T12:41:00;99104.34;;;7.67;70.61
80627;BME280;69982;51.758;5.784;2024-02-23T12:43:27;99103.59;;;7.70;70.76
80627;BME280;69982;51.758;5.784;2024-02-23T12:45:54;99101.73;;;7.72;70.34
80627;BME280;69982;51.758;5.784;2024-02-23T12:48:21;99103.95;;;7.73;70.45
80627;BME280;69982;51.758;5.784;2024-02-23T12:50:52;99107.34;;;7.75;70.86
80627;BME280;69982;51.758;5.784;2024-02-23T12:53:38;99106.80;;;7.74;70.79
80627;BME280;69982;51.758;5.784;2024-02-23T12:56:12;99110.75;;;7.75;70.68
80627;BME280;69982;51.758;5.784;2024-02-23T12:58:43;99107.97;;;7.78;70.30
80627;BME280;69982;51.758;5.784;2024-02-23T13:01:11;99114.69;;;7.81;70.29
80627;BME280;69982;51.758;5.784;2024-02-23T13:03:39;99115.84;;;7.84;70.36
80627;BME280;69982;51.758;5.784;2024-02-23T13:06:11;99117.59;;;7.84;70.36
80627;BME280;69982;51.758;5.784;2024-02-23T13:08:39;99118.45;;;7.84;70.36
80627;BME280;69982;51.758;5.784;2024-02-23T13:11:21;99119.35;;;7.83;70.04
80627;BME280;69982;51.758;5.784;2024-02-23T13:13:48;99113.33;;;7.82;70.57
80627;BME280;69982;51.758;5.784;2024-02-23T13:16:18;99118.84;;;7.81;70.37
80627;BME280;69982;51.758;5.784;2024-02-23T13:18:45;99115.80;;;7.80;70.40
80627;BME280;69982;51.758;5.784;2024-02-23T13:21:13;99121.52;;;7.83;70.35
80627;BME280;69982;51.758;5.784;2024-02-23T13:23:40;99123.96;;;7.85;70.28
80627;BME280;69982;51.758;5.784;2024-02-23T13:26:09;99122.39;;;7.86;70.68
80627;BME280;69982;51.758;5.784;2024-02-23T13:28:38;99124.43;;;7.87;70.62
80627;BME280;69982;51.758;5.784;2024-02-23T13:31:04;99124.40;;;7.87;70.47
80627;BME280;69982;51.758;5.784;2024-02-23T13:33:34;99128.58;;;7.85;70.62
80627;BME280;69982;51.758;5.784;2024-02-23T13:36:01;99126.34;;;7.83;70.29
80627;BME280;69982;51.758;5.784;2024-02-23T13:38:27;99132.09;;;7.80;70.21
80627;BME280;69982;51.758;5.784;2024-02-23T13:40:54;99131.39;;;7.76;70.56
80627;BME280;69982;51.758;5.784;2024-02-23T13:43:20;99126.14;;;7.75;70.82
80627;BME280;69982;51.758;5.784;2024-02-23T13:45:51;99128.69;;;7.77;70.55
80627;BME280;69982;51.758;5.784;2024-02-23T13:48:20;99130.06;;;7.80;70.42
80627;BME280;69982;51.758;5.784;2024-02-23T13:50:47;99127.45;;;7.86;70.49
80627;BME280;69982;51.758;5.784;2024-02-23T13:53:16;99132.35;;;7.91;70.60
80627;BME280;69982;51.758;5.784;2024-02-23T13:55:43;99138.67;;;7.95;70.50
80627;BME280;69982;51.758;5.784;2024-02-23T13:58:10;99138.94;;;7.97;70.75
80627;BME280;69982;51.758;5.784;2024-02-23T14:00:43;99144.71;;;7.96;71.68
80627;BME280;69982;51.758;5.784;2024-02-23T14:03:16;99146.85;;;7.90;72.38
80627;BME280;69982;51.758;5.784;2024-02-23T14:05:46;99145.67;;;7.82;73.21
80627;BME280;69982;51.758;5.784;2024-02-23T14:08:18;99142.59;;;7.78;73.87
80627;BME280;69982;51.758;5.784;2024-02-23T14:10:45;99140.55;;;7.77;74.07
80627;BME280;69982;51.758;5.784;2024-02-23T14:13:16;99145.91;;;7.77;74.54
80627;BME280;69982;51.758;5.784;2024-02-23T14:15:45;99147.14;;;7.79;74.78
80627;BME280;69982;51.758;5.784;2024-02-23T14:18:12;99150.95;;;7.82;75.22
80627;BME280;69982;51.758;5.784;2024-02-23T14:20:38;99156.85;;;7.83;75.16
80627;BME280;69982;51.758;5.784;2024-02-23T14:23:08;99154.25;;;7.80;74.44
80627;BME280;69982;51.758;5.784;2024-02-23T14:25:34;99154.90;;;7.75;74.35
80627;BME280;69982;51.758;5.784;2024-02-23T14:28:00;99149.91;;;7.71;74.96
80627;BME280;69982;51.758;5.784;2024-02-23T14:30:27;99156.95;;;7.67;75.24
80627;BME280;69982;51.758;5.784;2024-02-23T14:32:53;99157.42;;;7.61;75.35
80627;BME280;69982;51.758;5.784;2024-02-23T14:35:20;99161.45;;;7.61;75.95
80627;BME280;69982;51.758;5.784;2024-02-23T14:37:49;99158.55;;;7.61;75.67
80627;BME280;69982;51.758;5.784;2024-02-23T14:40:16;99155.22;;;7.65;75.78
80627;BME280;69982;51.758;5.784;2024-02-23T14:42:42;99160.77;;;7.72;75.87
80627;BME280;69982;51.758;5.784;2024-02-23T14:45:09;99151.93;;;7.81;75.94
80627;BME280;69982;51.758;5.784;2024-02-23T14:47:37;99150.91;;;7.90;75.74
80627;BME280;69982;51.758;5.784;2024-02-23T14:50:05;99146.04;;;7.95;75.21
80627;BME280;69982;51.758;5.784;2024-02-23T14:52:32;99145.14;;;8.01;75.24
80627;BME280;69982;51.758;5.784;2024-02-23T14:54:59;99144.30;;;8.05;75.07
80627;BME280;69982;51.758;5.784;2024-02-23T14:57:30;99146.75;;;8.07;74.54
80627;BME280;69982;51.758;5.784;2024-02-23T14:59:58;99150.05;;;8.05;73.73
80627;BME280;69982;51.758;5.784;2024-02-23T15:03:05;99148.80;;;8.05;74.20
80627;BME280;69982;51.758;5.784;2024-02-23T15:05:32;99152.10;;;8.06;74.14
80627;BME280;69982;51.758;5.784;2024-02-23T15:07:58;99152.80;;;8.09;74.50
80627;BME280;69982;51.758;5.784;2024-02-23T15:10:25;99151.67;;;8.12;74.37
80627;BME280;69982;51.758;5.784;2024-02-23T15:12:51;99154.80;;;8.13;73.06
80627;BME280;69982;51.758;5.784;2024-02-23T15:15:18;99155.33;;;8.12;72.36
80627;BME280;69982;51.758;5.784;2024-02-23T15:17:44;99158.38;;;8.09;72.23
80627;BME280;69982;51.758;5.784;2024-02-23T15:20:16;99161.16;;;8.05;72.20
80627;BME280;69982;51.758;5.784;2024-02-23T15:22:42;99168.25;;;8.01;72.26
80627;BME280;69982;51.758;5.784;2024-02-23T15:25:09;99169.70;;;7.96;72.79
80627;BME280;69982;51.758;5.784;2024-02-23T15:27:36;99168.50;;;7.93;73.35
80627;BME280;69982;51.758;5.784;2024-02-23T15:30:07;99168.64;;;7.90;73.66
80627;BME280;69982;51.758;5.784;2024-02-23T15:32:37;99169.27;;;7.87;73.82
80627;BME280;69982;51.758;5.784;2024-02-23T15:35:06;99176.94;;;7.83;74.36
80627;BME280;69982;51.758;5.784;2024-02-23T15:37:33;99182.09;;;7.79;75.01
80627;BME280;69982;51.758;5.784;2024-02-23T15:40:00;99179.48;;;7.71;75.55
80627;BME280;69982;51.758;5.784;2024-02-23T15:42:26;99171.73;;;7.65;76.00
80627;BME280;69982;51.758;5.784;2024-02-23T15:44:53;99174.91;;;7.61;76.28
80627;BME280;69982;51.758;5.784;2024-02-23T15:47:21;99176.48;;;7.60;76.54
80627;BME280;69982;51.758;5.784;2024-02-23T15:49:48;99176.89;;;7.57;76.38
80627;BME280;69982;51.758;5.784;2024-02-23T15:52:20;99174.22;;;7.55;76.50
80627;BME280;69982;51.758;5.784;2024-02-23T15:54:47;99179.02;;;7.54;76.92
80627;BME280;69982;51.758;5.784;2024-02-23T15:57:15;99177.16;;;7.52;76.87
80627;BME280;69982;51.758;5.784;2024-02-23T15:59:42;99177.52;;;7.48;76.86
80627;BME280;69982;51.758;5.784;2024-02-23T16:02:09;99185.42;;;7.45;76.78
80627;BME280;69982;51.758;5.784;2024-02-23T16:04:35;99185.34;;;7.45;76.93
80627;BME280;69982;51.758;5.784;2024-02-23T16:07:02;99183.42;;;7.45;76.57
80627;BME280;69982;51.758;5.784;2024-02-23T16:09:29;99187.00;;;7.45;76.55
80627;BME280;69982;51.758;5.784;2024-02-23T16:11:56;99186.96;;;7.45;76.78
80627;BME280;69982;51.758;5.784;2024-02-23T16:14:23;99187.04;;;7.45;76.76
80627;BME280;69982;51.758;5.784;2024-02-23T16:16:52;99191.09;;;7.44;76.45
80627;BME280;69982;51.758;5.784;2024-02-23T16:19:23;99192.85;;;7.41;76.32
80627;BME280;69982;51.758;5.784;2024-02-23T16:21:58;99196.25;;;7.39;76.33
80627;BME280;69982;51.758;5.784;2024-02-23T16:24:30;99197.41;;;7.34;76.19
80627;BME280;69982;51.758;5.784;2024-02-23T16:26:59;99198.92;;;7.31;76.15
80627;BME280;69982;51.758;5.784;2024-02-23T16:29:25;99201.69;;;7.32;75.65
80627;BME280;69982;51.758;5.784;2024-02-23T16:31:52;99200.31;;;7.35;75.51
80627;BME280;69982;51.758;5.784;2024-02-23T16:34:18;99196.27;;;7.37;75.23
80627;BME280;69982;51.758;5.784;2024-02-23T16:36:45;99198.56;;;7.37;74.73
80627;BME280;69982;51.758;5.784;2024-02-23T16:39:12;99199.71;;;7.37;74.23
80627;BME280;69982;51.758;5.784;2024-02-23T16:41:38;99196.79;;;7.35;74.25
80627;BME280;69982;51.758;5.784;2024-02-23T16:44:05;99198.14;;;7.34;74.22
80627;BME280;69982;51.758;5.784;2024-02-23T16:46:33;99201.52;;;7.32;74.51
80627;BME280;69982;51.758;5.784;2024-02-23T16:48:59;99201.30;;;7.31;74.28
80627;BME280;69982;51.758;5.784;2024-02-23T16:51:29;99209.11;;;7.29;74.43
80627;BME280;69982;51.758;5.784;2024-02-23T16:53:56;99203.05;;;7.32;74.53
80627;BME280;69982;51.758;5.784;2024-02-23T16:56:24;99199.27;;;7.35;74.34
80627;BME280;69982;51.758;5.784;2024-02-23T16:58:59;99202.01;;;7.40;73.92
80627;BME280;69982;51.758;5.784;2024-02-23T17:01:27;99205.27;;;7.44;73.79
80627;BME280;69982;51.758;5.784;2024-02-23T17:03:56;99205.10;;;7.47;73.58
80627;BME280;69982;51.758;5.784;2024-02-23T17:06:23;99207.15;;;7.48;73.87
80627;BME280;69982;51.758;5.784;2024-02-23T17:08:52;99204.28;;;7.48;73.80
80627;BME280;69982;51.758;5.784;2024-02-23T17:11:21;99201.98;;;7.47;73.61
80627;BME280;69982;51.758;5.784;2024-02-23T17:13:52;99202.46;;;7.48;73.39
80627;BME280;69982;51.758;5.784;2024-02-23T17:16:22;99199.79;;;7.51;73.32
80627;BME280;69982;51.758;5.784;2024-02-23T17:18:54;99207.45;;;7.54;73.28
80627;BME280;69982;51.758;5.784;2024-02-23T17:21:25;99201.30;;;7.58;72.97
80627;BME280;69982;51.758;5.784;2024-02-23T17:23:53;99203.90;;;7.60;72.77
80627;BME280;69982;51.758;5.784;2024-02-23T17:26:21;99207.04;;;7.61;72.37
80627;BME280;69982;51.758;5.784;2024-02-23T17:28:51;99205.71;;;7.61;72.16
80627;BME280;69982;51.758;5.784;2024-02-23T17:31:20;99204.08;;;7.60;71.87
80627;BME280;69982;51.758;5.784;2024-02-23T17:33:50;99205.11;;;7.57;71.46
80627;BME280;69982;51.758;5.784;2024-02-23T17:36:17;99207.11;;;7.54;71.28
80627;BME280;69982;51.758;5.784;2024-02-23T17:38:44;99206.64;;;7.51;71.01
80627;BME280;69982;51.758;5.784;2024-02-23T17:41:16;99212.40;;;7.46;70.80
80627;BME280;69982;51.758;5.784;2024-02-23T17:43:48;99211.64;;;7.45;71.00
80627;BME280;69982;51.758;5.784;2024-02-23T17:46:15;99214.42;;;7.46;70.70
80627;BME280;69982;51.758;5.784;2024-02-23T17:48:45;99223.41;;;7.46;70.36
80627;BME280;69982;51.758;5.784;2024-02-23T17:51:14;99222.94;;;7.45;70.32
80627;BME280;69982;51.758;5.784;2024-02-23T17:53:45;99230.45;;;7.45;70.15
80627;BME280;69982;51.758;5.784;2024-02-23T19:06:04;99281.36;;;7.38;73.49
80627;BME280;69982;51.758;5.784;2024-02-23T19:08:31;99282.48;;;7.39;73.58
80627;BME280;69982;51.758;5.784;2024-02-23T19:11:02;99281.48;;;7.38;73.68
80627;BME280;69982;51.758;5.784;2024-02-23T19:13:29;99281.73;;;7.37;73.78
80627;BME280;69982;51.758;5.784;2024-02-23T19:16:00;99277.38;;;7.36;73.82
80627;BME280;69982;51.758;5.784;2024-02-23T19:18:32;99278.69;;;7.34;73.88
80627;BME280;69982;51.758;5.784;2024-02-23T19:20:59;99281.91;;;7.36;73.90
80627;BME280;69982;51.758;5.784;2024-02-23T19:23:28;99278.67;;;7.39;73.90
80627;BME280;69982;51.758;5.784;2024-02-23T19:25:56;99282.42;;;7.42;73.82
80627;BME280;69982;51.758;5.784;2024-02-23T19:28:23;99283.91;;;7.44;73.72